sensor_id;sensor_type;location;lat;lon;timestamp;temperature;humidity
69589;SHT31;56792;50.644;17.984;2022-12-18T09:58:35;-2.54;76.30
69589;SHT31;56792;50.644;17.984;2022-12-18T10:01:20;-2.48;76.00
69589;SHT31;56792;50.644;17.984;2022-12-18T10:03:57;-2.47;76.01
69589;SHT31;56792;50.644;17.984;2022-12-18T10:06:35;-2.46;76.00
69589;SHT31;56792;50.644;17.984;2022-12-18T10:09:18;-2.43;75.90
69589;SHT31;56792;50.644;17.984;2022-12-18T10:12:04;-2.42;75.68
69589;SHT31;56792;50.644;17.984;2022-12-18T10:14:50;-2.45;75.44
69589;SHT31;56792;50.644;17.984;2022-12-18T10:17:36;-2.46;75.46
69589;SHT31;56792;50.644;17.984;2022-12-18T10:20:20;-2.47;75.26
69589;SHT31;56792;50.644;17.984;2022-12-18T10:23:04;-2.49;75.18
69589;SHT31;56792;50.644;17.984;2022-12-18T10:25:53;-2.49;75.23
69589;SHT31;56792;50.644;17.984;2022-12-18T10:28:35;-2.44;75.29
69589;SHT31;56792;50.644;17.984;2022-12-18T10:31:16;-2.39;75.21
69589;SHT31;56792;50.644;17.984;2022-12-18T10:33:56;-2.37;75.29
69589;SHT31;56792;50.644;17.984;2022-12-18T10:36:29;-2.31;75.26
69589;SHT31;56792;50.644;17.984;2022-12-18T10:39:16;-2.27;75.27
69589;SHT31;56792;50.644;17.984;2022-12-18T10:41:52;-2.28;75.03
69589;SHT31;56792;50.644;17.984;2022-12-18T10:44:46;-2.27;75.15
69589;SHT31;56792;50.644;17.984;2022-12-18T10:47:40;-2.28;74.86
69589;SHT31;56792;50.644;17.984;2022-12-18T10:50:22;-2.28;74.89
69589;SHT31;56792;50.644;17.984;2022-12-18T10:53:00;-2.26;74.81
69589;SHT31;56792;50.644;17.984;2022-12-18T10:55:35;-2.26;74.81
69589;SHT31;56792;50.644;17.984;2022-12-18T10:58:23;-2.24;74.86
69589;SHT31;56792;50.644;17.984;2022-12-18T11:01:05;-2.20;74.79
69589;SHT31;56792;50.644;17.984;2022-12-18T11:03:47;-2.18;74.82
69589;SHT31;56792;50.644;17.984;2022-12-18T11:06:52;-2.16;74.73
69589;SHT31;56792;50.644;17.984;2022-12-18T11:09:30;-2.15;74.60
69589;SHT31;56792;50.644;17.984;2022-12-18T11:12:06;-2.15;74.54
69589;SHT31;56792;50.644;17.984;2022-12-18T11:14:51;-2.15;74.61
69589;SHT31;56792;50.644;17.984;2022-12-18T11:17:27;-2.13;74.57
69589;SHT31;56792;50.644;17.984;2022-12-18T11:20:04;-2.06;74.55
69589;SHT31;56792;50.644;17.984;2022-12-18T11:23:02;-1.96;74.51
69589;SHT31;56792;50.644;17.984;2022-12-18T11:25:41;-1.90;74.46
69589;SHT31;56792;50.644;17.984;2022-12-18T11:28:28;-1.89;74.11
69589;SHT31;56792;50.644;17.984;2022-12-18T11:31:22;-1.91;74.20
69589;SHT31;56792;50.644;17.984;2022-12-18T11:34:00;-1.96;73.91
69589;SHT31;56792;50.644;17.984;2022-12-18T11:36:42;-2.07;74.04
69589;SHT31;56792;50.644;17.984;2022-12-18T11:39:20;-2.13;74.18
69589;SHT31;56792;50.644;17.984;2022-12-18T11:42:08;-2.10;74.28
69589;SHT31;56792;50.644;17.984;2022-12-18T11:44:49;-2.05;74.35
69589;SHT31;56792;50.644;17.984;2022-12-18T11:47:28;-2.02;74.22
69589;SHT31;56792;50.644;17.984;2022-12-18T11:50:13;-2.06;73.69
69589;SHT31;56792;50.644;17.984;2022-12-18T19:16:27;-9.60;76.83
69589;SHT31;56792;50.644;17.984;2022-12-18T19:19:06;-9.53;77.01
69589;SHT31;56792;50.644;17.984;2022-12-18T19:21:45;-9.50;77.27
69589;SHT31;56792;50.644;17.984;2022-12-18T19:24:25;-9.46;77.42
69589;SHT31;56792;50.644;17.984;2022-12-18T19:27:01;-9.38;77.66
69589;SHT31;56792;50.644;17.984;2022-12-18T19:29:44;-9.35;77.82
69589;SHT31;56792;50.644;17.984;2022-12-18T19:32:26;-9.26;78.60
69589;SHT31;56792;50.644;17.984;2022-12-18T19:35:09;-9.17;79.02
69589;SHT31;56792;50.644;17.984;2022-12-18T19:37:48;-9.10;78.64
69589;SHT31;56792;50.644;17.984;2022-12-18T19:40:36;-9.09;77.92
69589;SHT31;56792;50.644;17.984;2022-12-18T19:43:16;-9.07;77.74
69589;SHT31;56792;50.644;17.984;2022-12-18T19:45:54;-9.10;77.59
69589;SHT31;56792;50.644;17.984;2022-12-18T19:48:29;-9.12;77.35
69589;SHT31;56792;50.644;17.984;2022-12-18T19:51:07;-9.13;77.30
69589;SHT31;56792;50.644;17.984;2022-12-18T19:53:45;-9.15;76.94
69589;SHT31;56792;50.644;17.984;2022-12-18T19:56:26;-9.20;76.61
69589;SHT31;56792;50.644;17.984;2022-12-18T19:59:06;-9.24;76.41
69589;SHT31;56792;50.644;17.984;2022-12-18T20:01:53;-9.29;76.28
69589;SHT31;56792;50.644;17.984;2022-12-18T20:04:33;-9.33;76.32
69589;SHT31;56792;50.644;17.984;2022-12-18T20:07:16;-9.34;76.33
69589;SHT31;56792;50.644;17.984;2022-12-18T20:09:51;-9.39;76.03
69589;SHT31;56792;50.644;17.984;2022-12-18T20:12:31;-9.39;76.36
69589;SHT31;56792;50.644;17.984;2022-12-18T20:15:13;-9.39;76.44
69589;SHT31;56792;50.644;17.984;2022-12-18T20:17:55;-9.39;76.62
69589;SHT31;56792;50.644;17.984;2022-12-18T20:20:34;-9.37;77.23
69589;SHT31;56792;50.644;17.984;2022-12-18T20:23:15;-9.37;76.84
69589;SHT31;56792;50.644;17.984;2022-12-18T20:25:54;-9.33;76.98
69589;SHT31;56792;50.644;17.984;2022-12-18T20:28:32;-9.24;77.07
69589;SHT31;56792;50.644;17.984;2022-12-18T20:31:20;-9.20;77.15
69589;SHT31;56792;50.644;17.984;2022-12-18T20:34:10;-9.18;77.05
69589;SHT31;56792;50.644;17.984;2022-12-18T20:36:47;-9.17;77.00
69589;SHT31;56792;50.644;17.984;2022-12-18T20:39:27;-9.22;76.71
69589;SHT31;56792;50.644;17.984;2022-12-18T20:42:05;-9.24;76.78
69589;SHT31;56792;50.644;17.984;2022-12-18T20:44:42;-9.23;76.79
69589;SHT31;56792;50.644;17.984;2022-12-18T20:47:18;-9.23;76.72
69589;SHT31;56792;50.644;17.984;2022-12-18T20:49:55;-9.22;76.78
69589;SHT31;56792;50.644;17.984;2022-12-18T20:52:44;-9.23;76.62
69589;SHT31;56792;50.644;17.984;2022-12-18T20:55:37;-9.25;76.56
69589;SHT31;56792;50.644;17.984;2022-12-18T20:58:23;-9.27;76.63
69589;SHT31;56792;50.644;17.984;2022-12-18T21:01:13;-9.27;76.80
69589;SHT31;56792;50.644;17.984;2022-12-18T21:04:09;-9.26;76.87
69589;SHT31;56792;50.644;17.984;2022-12-18T21:06:48;-9.30;76.87
69589;SHT31;56792;50.644;17.984;2022-12-18T21:09:27;-9.43;77.14
69589;SHT31;56792;50.644;17.984;2022-12-18T21:12:13;-9.52;77.18
69589;SHT31;56792;50.644;17.984;2022-12-18T21:15:14;-9.63;77.45
69589;SHT31;56792;50.644;17.984;2022-12-18T21:17:57;-9.70;77.68
69589;SHT31;56792;50.644;17.984;2022-12-18T21:20:36;-9.74;77.78
69589;SHT31;56792;50.644;17.984;2022-12-18T21:23:10;-9.73;77.82
69589;SHT31;56792;50.644;17.984;2022-12-18T21:25:46;-9.72;77.72
69589;SHT31;56792;50.644;17.984;2022-12-18T21:28:22;-9.69;77.36
69589;SHT31;56792;50.644;17.984;2022-12-18T21:31:06;-9.67;77.39
69589;SHT31;56792;50.644;17.984;2022-12-18T21:33:43;-9.70;77.37
69589;SHT31;56792;50.644;17.984;2022-12-18T21:36:22;-9.73;77.72
69589;SHT31;56792;50.644;17.984;2022-12-18T21:39:10;-9.71;77.63
69589;SHT31;56792;50.644;17.984;2022-12-18T21:41:55;-9.68;77.38
69589;SHT31;56792;50.644;17.984;2022-12-18T21:44:55;-9.72;77.52
69589;SHT31;56792;50.644;17.984;2022-12-18T21:47:31;-9.78;77.87
69589;SHT31;56792;50.644;17.984;2022-12-18T21:50:05;-9.82;78.05
69589;SHT31;56792;50.644;17.984;2022-12-18T21:52:42;-9.87;78.15
69589;SHT31;56792;50.644;17.984;2022-12-18T21:55:23;-9.92;78.09
69589;SHT31;56792;50.644;17.984;2022-12-18T21:57:57;-9.94;78.08
69589;SHT31;56792;50.644;17.984;2022-12-18T22:00:37;-9.95;78.05
69589;SHT31;56792;50.644;17.984;2022-12-18T22:03:12;-9.97;78.01
69589;SHT31;56792;50.644;17.984;2022-12-18T22:05:45;-10.04;78.05
69589;SHT31;56792;50.644;17.984;2022-12-18T22:08:19;-10.13;78.40
69589;SHT31;56792;50.644;17.984;2022-12-18T22:14:54;-9.98;78.04
69589;SHT31;56792;50.644;17.984;2022-12-18T22:17:32;-9.95;77.87
69589;SHT31;56792;50.644;17.984;2022-12-18T22:20:05;-9.97;77.84
69589;SHT31;56792;50.644;17.984;2022-12-18T22:22:40;-9.93;77.80
69589;SHT31;56792;50.644;17.984;2022-12-18T22:25:13;-9.88;77.67
69589;SHT31;56792;50.644;17.984;2022-12-18T22:27:47;-9.92;77.74
69589;SHT31;56792;50.644;17.984;2022-12-18T22:30:43;-9.94;78.00
69589;SHT31;56792;50.644;17.984;2022-12-18T22:33:17;-9.89;77.81
69589;SHT31;56792;50.644;17.984;2022-12-18T22:35:50;-9.84;77.79
69589;SHT31;56792;50.644;17.984;2022-12-18T22:38:24;-9.81;77.44
69589;SHT31;56792;50.644;17.984;2022-12-18T22:40:57;-9.77;77.46
69589;SHT31;56792;50.644;17.984;2022-12-18T22:43:29;-9.75;77.48
69589;SHT31;56792;50.644;17.984;2022-12-18T22:46:03;-9.73;77.69
69589;SHT31;56792;50.644;17.984;2022-12-18T22:48:38;-9.73;77.40
69589;SHT31;56792;50.644;17.984;2022-12-18T22:51:12;-9.73;77.11
69589;SHT31;56792;50.644;17.984;2022-12-18T22:53:47;-9.72;76.96
69589;SHT31;56792;50.644;17.984;2022-12-18T22:56:20;-9.72;77.03
69589;SHT31;56792;50.644;17.984;2022-12-18T22:58:52;-9.70;77.03
69589;SHT31;56792;50.644;17.984;2022-12-18T23:01:25;-9.68;77.00
69589;SHT31;56792;50.644;17.984;2022-12-18T23:03:59;-9.65;77.05
69589;SHT31;56792;50.644;17.984;2022-12-18T23:06:32;-9.64;77.02
69589;SHT31;56792;50.644;17.984;2022-12-18T23:09:04;-9.63;77.20
69589;SHT31;56792;50.644;17.984;2022-12-18T23:11:43;-9.59;77.43
69589;SHT31;56792;50.644;17.984;2022-12-18T23:14:17;-9.53;77.61
69589;SHT31;56792;50.644;17.984;2022-12-18T23:16:50;-9.47;78.21
69589;SHT31;56792;50.644;17.984;2022-12-18T23:19:22;-9.37;79.16
69589;SHT31;56792;50.644;17.984;2022-12-18T23:21:56;-9.24;79.60
69589;SHT31;56792;50.644;17.984;2022-12-18T23:24:30;-9.11;79.70
69589;SHT31;56792;50.644;17.984;2022-12-18T23:27:03;-8.99;80.08
69589;SHT31;56792;50.644;17.984;2022-12-18T23:29:36;-8.88;80.24
69589;SHT31;56792;50.644;17.984;2022-12-18T23:32:09;-8.78;80.44
69589;SHT31;56792;50.644;17.984;2022-12-18T23:34:42;-8.68;80.17
69589;SHT31;56792;50.644;17.984;2022-12-18T23:37:14;-8.61;80.14
69589;SHT31;56792;50.644;17.984;2022-12-18T23:39:47;-8.55;80.37
69589;SHT31;56792;50.644;17.984;2022-12-18T23:42:19;-8.46;80.40
69589;SHT31;56792;50.644;17.984;2022-12-18T23:44:51;-8.40;80.43
69589;SHT31;56792;50.644;17.984;2022-12-18T23:47:24;-8.33;80.26
69589;SHT31;56792;50.644;17.984;2022-12-18T23:49:57;-8.29;80.02
69589;SHT31;56792;50.644;17.984;2022-12-18T23:52:30;-8.22;80.01
69589;SHT31;56792;50.644;17.984;2022-12-18T23:55:02;-8.16;80.07
69589;SHT31;56792;50.644;17.984;2022-12-18T23:57:36;-8.13;79.84
